sensor_id;sensor_type;location;lat;lon;timestamp;temperature;humidity
39665;DHT22;26679;50.872;4.332;2023-08-12T00:00:41;22.60;99.90
39665;DHT22;26679;50.872;4.332;2023-08-12T00:03:06;22.60;99.90
39665;DHT22;26679;50.872;4.332;2023-08-12T00:05:32;22.60;99.90
39665;DHT22;26679;50.872;4.332;2023-08-12T00:08:00;22.60;99.90
39665;DHT22;26679;50.872;4.332;2023-08-12T00:10:26;22.50;99.90
39665;DHT22;26679;50.872;4.332;2023-08-12T00:12:52;22.30;99.90
39665;DHT22;26679;50.872;4.332;2023-08-12T00:15:18;22.40;99.90
39665;DHT22;26679;50.872;4.332;2023-08-12T00:17:43;22.40;99.90
39665;DHT22;26679;50.872;4.332;2023-08-12T00:20:09;22.40;99.90
39665;DHT22;26679;50.872;4.332;2023-08-12T00:22:36;22.30;99.90
39665;DHT22;26679;50.872;4.332;2023-08-12T00:25:01;22.40;99.90
39665;DHT22;26679;50.872;4.332;2023-08-12T00:27:28;22.40;99.90
39665;DHT22;26679;50.872;4.332;2023-08-12T00:29:53;22.40;99.90
39665;DHT22;26679;50.872;4.332;2023-08-12T00:32:19;22.40;99.90
39665;DHT22;26679;50.872;4.332;2023-08-12T00:34:44;22.30;99.90
39665;DHT22;26679;50.872;4.332;2023-08-12T00:37:10;22.40;99.90
39665;DHT22;26679;50.872;4.332;2023-08-12T00:39:35;22.40;99.90
39665;DHT22;26679;50.872;4.332;2023-08-12T00:42:01;22.50;99.90
39665;DHT22;26679;50.872;4.332;2023-08-12T00:44:26;22.50;99.90
39665;DHT22;26679;50.872;4.332;2023-08-12T00:46:52;22.40;99.90
39665;DHT22;26679;50.872;4.332;2023-08-12T00:49:18;22.40;99.90
39665;DHT22;26679;50.872;4.332;2023-08-12T00:51:44;22.40;99.90
39665;DHT22;26679;50.872;4.332;2023-08-12T00:54:14;22.30;99.90
39665;DHT22;26679;50.872;4.332;2023-08-12T00:56:41;22.40;99.90
39665;DHT22;26679;50.872;4.332;2023-08-12T00:59:07;22.40;99.90
39665;DHT22;26679;50.872;4.332;2023-08-12T01:01:32;22.40;99.90
39665;DHT22;26679;50.872;4.332;2023-08-12T01:03:59;22.10;99.90
39665;DHT22;26679;50.872;4.332;2023-08-12T01:06:24;21.90;99.90
39665;DHT22;26679;50.872;4.332;2023-08-12T01:08:50;21.80;99.90
39665;DHT22;26679;50.872;4.332;2023-08-12T01:11:16;21.60;99.90
39665;DHT22;26679;50.872;4.332;2023-08-12T01:16:29;21.30;99.90
39665;DHT22;26679;50.872;4.332;2023-08-12T01:18:55;21.30;99.90
39665;DHT22;26679;50.872;4.332;2023-08-12T01:21:21;21.30;99.90
39665;DHT22;26679;50.872;4.332;2023-08-12T01:23:49;21.20;99.90
39665;DHT22;26679;50.872;4.332;2023-08-12T01:26:15;21.20;99.90
39665;DHT22;26679;50.872;4.332;2023-08-12T01:28:40;21.20;99.90
39665;DHT22;26679;50.872;4.332;2023-08-12T01:33:34;21.10;99.90
39665;DHT22;26679;50.872;4.332;2023-08-12T01:36:07;21.10;99.90
39665;DHT22;26679;50.872;4.332;2023-08-12T01:38:34;21.10;99.90
39665;DHT22;26679;50.872;4.332;2023-08-12T01:41:01;21.10;99.90
39665;DHT22;26679;50.872;4.332;2023-08-12T01:43:26;21.10;99.90
39665;DHT22;26679;50.872;4.332;2023-08-12T01:45:53;21.20;99.90
39665;DHT22;26679;50.872;4.332;2023-08-12T01:48:18;21.20;99.90
39665;DHT22;26679;50.872;4.332;2023-08-12T01:50:48;21.20;99.90
39665;DHT22;26679;50.872;4.332;2023-08-12T01:53:13;21.30;99.90
39665;DHT22;26679;50.872;4.332;2023-08-12T01:55:42;21.40;99.90
39665;DHT22;26679;50.872;4.332;2023-08-12T01:58:08;21.50;99.90
39665;DHT22;26679;50.872;4.332;2023-08-12T02:00:33;21.50;99.90
39665;DHT22;26679;50.872;4.332;2023-08-12T02:02:59;21.50;99.90
39665;DHT22;26679;50.872;4.332;2023-08-12T02:05:24;21.50;99.90
39665;DHT22;26679;50.872;4.332;2023-08-12T02:07:50;21.40;99.90
39665;DHT22;26679;50.872;4.332;2023-08-12T02:10:15;21.40;99.90
39665;DHT22;26679;50.872;4.332;2023-08-12T02:12:41;21.30;99.90
39665;DHT22;26679;50.872;4.332;2023-08-12T02:15:06;21.30;99.90
39665;DHT22;26679;50.872;4.332;2023-08-12T02:17:32;21.30;99.90
39665;DHT22;26679;50.872;4.332;2023-08-12T02:19:57;21.20;99.90
39665;DHT22;26679;50.872;4.332;2023-08-12T02:22:23;21.30;99.90
39665;DHT22;26679;50.872;4.332;2023-08-12T02:24:48;21.20;99.90
39665;DHT22;26679;50.872;4.332;2023-08-12T02:27:14;21.20;99.90
39665;DHT22;26679;50.872;4.332;2023-08-12T02:29:39;21.00;99.90
39665;DHT22;26679;50.872;4.332;2023-08-12T02:32:05;20.90;99.90
39665;DHT22;26679;50.872;4.332;2023-08-12T02:34:30;20.90;99.90
39665;DHT22;26679;50.872;4.332;2023-08-12T02:36:56;20.90;99.90
39665;DHT22;26679;50.872;4.332;2023-08-12T02:39:22;20.90;99.90
39665;DHT22;26679;50.872;4.332;2023-08-12T02:41:47;20.90;99.90
39665;DHT22;26679;50.872;4.332;2023-08-12T02:44:12;20.90;99.90
39665;DHT22;26679;50.872;4.332;2023-08-12T02:46:38;21.00;99.90
39665;DHT22;26679;50.872;4.332;2023-08-12T02:49:04;21.00;99.90
39665;DHT22;26679;50.872;4.332;2023-08-12T02:51:29;20.90;99.90
39665;DHT22;26679;50.872;4.332;2023-08-12T02:53:55;20.90;99.90
39665;DHT22;26679;50.872;4.332;2023-08-12T02:56:20;20.70;99.90
39665;DHT22;26679;50.872;4.332;2023-08-12T02:58:46;20.70;99.90
39665;DHT22;26679;50.872;4.332;2023-08-12T03:01:12;20.70;99.90
39665;DHT22;26679;50.872;4.332;2023-08-12T03:03:38;20.60;99.90
39665;DHT22;26679;50.872;4.332;2023-08-12T03:06:03;20.60;99.90
39665;DHT22;26679;50.872;4.332;2023-08-12T03:08:29;20.70;99.90
39665;DHT22;26679;50.872;4.332;2023-08-12T03:10:58;20.70;99.90
39665;DHT22;26679;50.872;4.332;2023-08-12T03:13:24;20.60;99.90
39665;DHT22;26679;50.872;4.332;2023-08-12T03:15:50;20.60;99.90
39665;DHT22;26679;50.872;4.332;2023-08-12T03:18:15;20.60;99.90
39665;DHT22;26679;50.872;4.332;2023-08-12T03:20:41;20.60;99.90
39665;DHT22;26679;50.872;4.332;2023-08-12T03:23:06;20.60;99.90
39665;DHT22;26679;50.872;4.332;2023-08-12T03:25:32;20.70;99.90
39665;DHT22;26679;50.872;4.332;2023-08-12T03:27:57;20.70;99.90
39665;DHT22;26679;50.872;4.332;2023-08-12T03:30:23;20.70;99.90
39665;DHT22;26679;50.872;4.332;2023-08-12T03:32:51;20.70;99.90
39665;DHT22;26679;50.872;4.332;2023-08-12T03:35:16;20.70;99.90
39665;DHT22;26679;50.872;4.332;2023-08-12T03:37:43;20.80;99.90
39665;DHT22;26679;50.872;4.332;2023-08-12T03:40:09;20.80;99.90
39665;DHT22;26679;50.872;4.332;2023-08-12T03:42:36;20.80;99.90
39665;DHT22;26679;50.872;4.332;2023-08-12T03:45:01;20.70;99.90
39665;DHT22;26679;50.872;4.332;2023-08-12T03:47:27;20.60;99.90
39665;DHT22;26679;50.872;4.332;2023-08-12T03:49:52;20.60;99.90
39665;DHT22;26679;50.872;4.332;2023-08-12T03:52:18;20.60;99.90
39665;DHT22;26679;50.872;4.332;2023-08-12T03:54:44;20.40;99.90
39665;DHT22;26679;50.872;4.332;2023-08-12T03:57:10;20.40;99.90
39665;DHT22;26679;50.872;4.332;2023-08-12T03:59:36;20.40;99.90
39665;DHT22;26679;50.872;4.332;2023-08-12T04:02:01;20.50;99.90
39665;DHT22;26679;50.872;4.332;2023-08-12T04:04:27;20.40;99.90
39665;DHT22;26679;50.872;4.332;2023-08-12T04:06:53;20.40;99.90
39665;DHT22;26679;50.872;4.332;2023-08-12T04:09:18;20.30;99.90
39665;DHT22;26679;50.872;4.332;2023-08-12T04:11:45;20.30;99.90
39665;DHT22;26679;50.872;4.332;2023-08-12T04:14:10;20.30;99.90
39665;DHT22;26679;50.872;4.332;2023-08-12T04:16:36;20.20;99.90
39665;DHT22;26679;50.872;4.332;2023-08-12T04:19:01;20.20;99.90
39665;DHT22;26679;50.872;4.332;2023-08-12T04:21:27;20.30;99.90
39665;DHT22;26679;50.872;4.332;2023-08-12T04:23:53;20.20;99.90
39665;DHT22;26679;50.872;4.332;2023-08-12T04:26:18;20.30;99.90
39665;DHT22;26679;50.872;4.332;2023-08-12T04:28:44;20.30;99.90
39665;DHT22;26679;50.872;4.332;2023-08-12T04:31:09;20.30;99.90
39665;DHT22;26679;50.872;4.332;2023-08-12T04:33:35;20.30;99.90
39665;DHT22;26679;50.872;4.332;2023-08-12T04:36:01;20.30;99.90
39665;DHT22;26679;50.872;4.332;2023-08-12T04:38:26;20.30;99.90
39665;DHT22;26679;50.872;4.332;2023-08-12T04:40:52;20.30;99.90
39665;DHT22;26679;50.872;4.332;2023-08-12T04:43:18;20.40;99.90
39665;DHT22;26679;50.872;4.332;2023-08-12T04:45:47;20.40;99.90
39665;DHT22;26679;50.872;4.332;2023-08-12T04:48:12;20.40;99.90
39665;DHT22;26679;50.872;4.332;2023-08-12T04:50:38;20.40;99.90
39665;DHT22;26679;50.872;4.332;2023-08-12T04:53:04;20.40;99.90
39665;DHT22;26679;50.872;4.332;2023-08-12T04:55:30;20.40;99.90
39665;DHT22;26679;50.872;4.332;2023-08-12T04:57:56;20.30;99.90
39665;DHT22;26679;50.872;4.332;2023-08-12T05:00:21;20.30;99.90
39665;DHT22;26679;50.872;4.332;2023-08-12T05:02:47;20.30;99.90
39665;DHT22;26679;50.872;4.332;2023-08-12T05:05:13;20.30;99.90
39665;DHT22;26679;50.872;4.332;2023-08-12T05:07:38;20.30;99.90
39665;DHT22;26679;50.872;4.332;2023-08-12T05:10:04;20.30;99.90
39665;DHT22;26679;50.872;4.332;2023-08-12T05:12:29;20.20;99.90
39665;DHT22;26679;50.872;4.332;2023-08-12T05:14:55;20.10;99.90
39665;DHT22;26679;50.872;4.332;2023-08-12T05:17:20;20.20;99.90
39665;DHT22;26679;50.872;4.332;2023-08-12T05:19:46;20.20;99.90
39665;DHT22;26679;50.872;4.332;2023-08-12T05:22:12;20.30;99.90
39665;DHT22;26679;50.872;4.332;2023-08-12T05:24:37;20.20;99.90
39665;DHT22;26679;50.872;4.332;2023-08-12T05:27:03;20.20;99.90
39665;DHT22;26679;50.872;4.332;2023-08-12T05:29:29;20.20;99.90
39665;DHT22;26679;50.872;4.332;2023-08-12T05:31:55;20.20;99.90
39665;DHT22;26679;50.872;4.332;2023-08-12T05:34:20;20.30;99.90
39665;DHT22;26679;50.872;4.332;2023-08-12T05:36:46;20.20;99.90
39665;DHT22;26679;50.872;4.332;2023-08-12T05:39:12;20.20;99.90
39665;DHT22;26679;50.872;4.332;2023-08-12T05:41:37;20.20;99.90
39665;DHT22;26679;50.872;4.332;2023-08-12T05:44:03;20.10;99.90
39665;DHT22;26679;50.872;4.332;2023-08-12T05:46:29;20.20;99.90
39665;DHT22;26679;50.872;4.332;2023-08-12T05:48:55;20.20;99.90
39665;DHT22;26679;50.872;4.332;2023-08-12T05:51:20;20.30;99.90
39665;DHT22;26679;50.872;4.332;2023-08-12T05:53:46;20.20;99.90
39665;DHT22;26679;50.872;4.332;2023-08-12T05:56:11;20.20;99.90
39665;DHT22;26679;50.872;4.332;2023-08-12T05:58:37;20.20;99.90
39665;DHT22;26679;50.872;4.332;2023-08-12T06:01:02;20.20;99.90
39665;DHT22;26679;50.872;4.332;2023-08-12T06:03:28;20.20;99.90
39665;DHT22;26679;50.872;4.332;2023-08-12T06:05:53;20.20;99.90
39665;DHT22;26679;50.872;4.332;2023-08-12T06:08:19;20.20;99.90
39665;DHT22;26679;50.872;4.332;2023-08-12T06:10:44;20.20;99.90
39665;DHT22;26679;50.872;4.332;2023-08-12T06:13:10;20.20;99.90
39665;DHT22;26679;50.872;4.332;2023-08-12T06:15:35;20.00;99.90
39665;DHT22;26679;50.872;4.332;2023-08-12T06:18:01;20.20;99.90
39665;DHT22;26679;50.872;4.332;2023-08-12T06:20:27;20.20;99.90
39665;DHT22;26679;50.872;4.332;2023-08-12T06:22:52;20.20;99.90
39665;DHT22;26679;50.872;4.332;2023-08-12T06:25:18;20.20;99.90
39665;DHT22;26679;50.872;4.332;2023-08-12T06:27:44;20.20;99.90
39665;DHT22;26679;50.872;4.332;2023-08-12T06:30:09;20.10;99.90
39665;DHT22;26679;50.872;4.332;2023-08-12T06:32:35;20.20;99.90
39665;DHT22;26679;50.872;4.332;2023-08-12T06:35:01;20.20;99.90
39665;DHT22;26679;50.872;4.332;2023-08-12T06:37:26;20.30;99.90
39665;DHT22;26679;50.872;4.332;2023-08-12T06:39:52;20.30;99.90
39665;DHT22;26679;50.872;4.332;2023-08-12T06:42:17;20.30;99.90
39665;DHT22;26679;50.872;4.332;2023-08-12T06:44:43;20.30;99.90
39665;DHT22;26679;50.872;4.332;2023-08-12T06:47:08;20.40;99.90
39665;DHT22;26679;50.872;4.332;2023-08-12T06:49:34;20.40;99.90
39665;DHT22;26679;50.872;4.332;2023-08-12T06:51:59;20.40;99.90
39665;DHT22;26679;50.872;4.332;2023-08-12T06:54:25;20.40;99.90
39665;DHT22;26679;50.872;4.332;2023-08-12T06:56:50;20.40;99.90
39665;DHT22;26679;50.872;4.332;2023-08-12T06:59:16;20.30;99.90
39665;DHT22;26679;50.872;4.332;2023-08-12T07:01:42;20.30;99.90
39665;DHT22;26679;50.872;4.332;2023-08-12T07:04:07;20.40;99.90
39665;DHT22;26679;50.872;4.332;2023-08-12T07:06:33;20.40;99.90
39665;DHT22;26679;50.872;4.332;2023-08-12T07:08:58;20.30;99.90
39665;DHT22;26679;50.872;4.332;2023-08-12T07:11:24;20.20;99.90
39665;DHT22;26679;50.872;4.332;2023-08-12T07:13:49;20.10;99.90
39665;DHT22;26679;50.872;4.332;2023-08-12T07:16:15;20.00;99.90
39665;DHT22;26679;50.872;4.332;2023-08-12T07:18:41;19.90;99.90
39665;DHT22;26679;50.872;4.332;2023-08-12T07:21:06;19.80;99.90
39665;DHT22;26679;50.872;4.332;2023-08-12T07:23:32;19.60;99.90
39665;DHT22;26679;50.872;4.332;2023-08-12T07:25:57;19.60;99.90
39665;DHT22;26679;50.872;4.332;2023-08-12T07:28:23;19.50;99.90
39665;DHT22;26679;50.872;4.332;2023-08-12T07:30:48;19.60;99.90
39665;DHT22;26679;50.872;4.332;2023-08-12T07:33:15;19.60;99.90
39665;DHT22;26679;50.872;4.332;2023-08-12T07:35:41;19.50;99.90
39665;DHT22;26679;50.872;4.332;2023-08-12T07:38:07;19.50;99.90
39665;DHT22;26679;50.872;4.332;2023-08-12T07:40:33;19.50;99.90
39665;DHT22;26679;50.872;4.332;2023-08-12T07:42:58;19.50;99.90
39665;DHT22;26679;50.872;4.332;2023-08-12T07:45:24;19.40;99.90
39665;DHT22;26679;50.872;4.332;2023-08-12T07:47:49;19.40;99.90
39665;DHT22;26679;50.872;4.332;2023-08-12T07:50:15;19.50;99.90
39665;DHT22;26679;50.872;4.332;2023-08-12T07:52:40;19.60;99.90
39665;DHT22;26679;50.872;4.332;2023-08-12T07:55:06;19.60;99.90
39665;DHT22;26679;50.872;4.332;2023-08-12T07:57:32;19.60;99.90
39665;DHT22;26679;50.872;4.332;2023-08-12T07:59:57;19.60;99.90
39665;DHT22;26679;50.872;4.332;2023-08-12T08:02:23;19.70;99.90
39665;DHT22;26679;50.872;4.332;2023-08-12T08:04:49;19.80;99.90
39665;DHT22;26679;50.872;4.332;2023-08-12T08:07:15;19.70;99.90
39665;DHT22;26679;50.872;4.332;2023-08-12T08:09:42;19.70;99.90
39665;DHT22;26679;50.872;4.332;2023-08-12T08:12:08;19.70;99.90
39665;DHT22;26679;50.872;4.332;2023-08-12T08:14:34;19.70;99.90
39665;DHT22;26679;50.872;4.332;2023-08-12T08:16:59;19.60;99.90
39665;DHT22;26679;50.872;4.332;2023-08-12T08:19:25;19.60;99.90
39665;DHT22;26679;50.872;4.332;2023-08-12T08:21:50;19.60;99.90
39665;DHT22;26679;50.872;4.332;2023-08-12T08:24:16;19.60;99.90
39665;DHT22;26679;50.872;4.332;2023-08-12T08:26:41;19.70;99.90
39665;DHT22;26679;50.872;4.332;2023-08-12T08:29:07;19.90;99.90
39665;DHT22;26679;50.872;4.332;2023-08-12T08:31:32;19.90;99.90
39665;DHT22;26679;50.872;4.332;2023-08-12T08:33:58;19.90;99.90
39665;DHT22;26679;50.872;4.332;2023-08-12T08:36:25;19.90;99.90
39665;DHT22;26679;50.872;4.332;2023-08-12T08:38:53;19.90;99.90
39665;DHT22;26679;50.872;4.332;2023-08-12T08:41:19;19.80;99.90
39665;DHT22;26679;50.872;4.332;2023-08-12T08:43:44;19.60;99.90
39665;DHT22;26679;50.872;4.332;2023-08-12T08:46:16;19.60;99.90
39665;DHT22;26679;50.872;4.332;2023-08-12T08:48:44;19.50;99.90
39665;DHT22;26679;50.872;4.332;2023-08-12T08:51:10;19.50;99.90
39665;DHT22;26679;50.872;4.332;2023-08-12T08:53:38;19.40;99.90
39665;DHT22;26679;50.872;4.332;2023-08-12T08:56:07;19.60;99.90
39665;DHT22;26679;50.872;4.332;2023-08-12T08:58:33;19.70;99.90
39665;DHT22;26679;50.872;4.332;2023-08-12T09:00:59;20.00;99.90
39665;DHT22;26679;50.872;4.332;2023-08-12T09:03:25;20.60;99.90
39665;DHT22;26679;50.872;4.332;2023-08-12T09:05:51;20.80;99.90
39665;DHT22;26679;50.872;4.332;2023-08-12T09:08:19;21.00;99.90
39665;DHT22;26679;50.872;4.332;2023-08-12T09:10:45;20.90;99.90
39665;DHT22;26679;50.872;4.332;2023-08-12T09:13:11;20.70;99.90
39665;DHT22;26679;50.872;4.332;2023-08-12T09:15:37;20.60;99.90
39665;DHT22;26679;50.872;4.332;2023-08-12T09:18:04;20.60;99.90
39665;DHT22;26679;50.872;4.332;2023-08-12T09:20:30;20.70;99.90
39665;DHT22;26679;50.872;4.332;2023-08-12T09:22:56;21.10;99.90
39665;DHT22;26679;50.872;4.332;2023-08-12T09:25:28;21.20;99.90
39665;DHT22;26679;50.872;4.332;2023-08-12T09:27:59;21.50;99.90
39665;DHT22;26679;50.872;4.332;2023-08-12T09:30:28;21.60;99.90
39665;DHT22;26679;50.872;4.332;2023-08-12T09:33:00;21.60;99.90
39665;DHT22;26679;50.872;4.332;2023-08-12T09:37:58;21.20;99.90
39665;DHT22;26679;50.872;4.332;2023-08-12T09:40:23;21.20;99.90
39665;DHT22;26679;50.872;4.332;2023-08-12T09:42:49;21.50;99.90
39665;DHT22;26679;50.872;4.332;2023-08-12T09:45:15;21.60;99.90
39665;DHT22;26679;50.872;4.332;2023-08-12T09:47:43;21.30;99.90
39665;DHT22;26679;50.872;4.332;2023-08-12T09:50:09;21.40;99.90
39665;DHT22;26679;50.872;4.332;2023-08-12T09:52:35;21.40;99.90
39665;DHT22;26679;50.872;4.332;2023-08-12T09:55:01;21.40;99.90
39665;DHT22;26679;50.872;4.332;2023-08-12T09:57:30;21.40;99.90
39665;DHT22;26679;50.872;4.332;2023-08-12T09:59:58;21.60;99.90
39665;DHT22;26679;50.872;4.332;2023-08-12T10:02:25;21.60;99.90
39665;DHT22;26679;50.872;4.332;2023-08-12T10:04:51;21.60;99.90
39665;DHT22;26679;50.872;4.332;2023-08-12T10:07:18;21.80;99.90
39665;DHT22;26679;50.872;4.332;2023-08-12T10:09:45;22.10;99.90
39665;DHT22;26679;50.872;4.332;2023-08-12T10:12:10;22.40;99.90
39665;DHT22;26679;50.872;4.332;2023-08-12T10:14:37;22.40;99.90
39665;DHT22;26679;50.872;4.332;2023-08-12T10:17:03;22.40;99.90
39665;DHT22;26679;50.872;4.332;2023-08-12T10:19:29;22.60;99.90
39665;DHT22;26679;50.872;4.332;2023-08-12T10:21:56;22.70;99.90
39665;DHT22;26679;50.872;4.332;2023-08-12T10:24:23;22.80;99.90
39665;DHT22;26679;50.872;4.332;2023-08-12T10:26:49;22.90;99.90
39665;DHT22;26679;50.872;4.332;2023-08-12T10:29:15;23.30;99.90
39665;DHT22;26679;50.872;4.332;2023-08-12T10:31:40;23.90;99.90
39665;DHT22;26679;50.872;4.332;2023-08-12T10:34:17;24.40;99.90
39665;DHT22;26679;50.872;4.332;2023-08-12T10:36:43;24.60;99.90
39665;DHT22;26679;50.872;4.332;2023-08-12T10:39:09;24.90;99.90
39665;DHT22;26679;50.872;4.332;2023-08-12T10:41:35;25.40;99.90
39665;DHT22;26679;50.872;4.332;2023-08-12T10:44:01;25.70;99.90
39665;DHT22;26679;50.872;4.332;2023-08-12T10:46:36;26.20;99.90
39665;DHT22;26679;50.872;4.332;2023-08-12T10:49:03;26.60;99.90
39665;DHT22;26679;50.872;4.332;2023-08-12T10:54:30;27.90;99.90
39665;DHT22;26679;50.872;4.332;2023-08-12T11:02:18;28.80;99.90
39665;DHT22;26679;50.872;4.332;2023-08-12T11:04:48;29.00;99.90
39665;DHT22;26679;50.872;4.332;2023-08-12T11:07:20;29.20;99.80
39665;DHT22;26679;50.872;4.332;2023-08-12T11:09:50;29.40;99.60
39665;DHT22;26679;50.872;4.332;2023-08-12T11:12:17;29.40;99.50
39665;DHT22;26679;50.872;4.332;2023-08-12T11:14:47;30.20;98.60
39665;DHT22;26679;50.872;4.332;2023-08-12T11:17:14;29.90;97.90
39665;DHT22;26679;50.872;4.332;2023-08-12T11:19:40;29.90;98.60
39665;DHT22;26679;50.872;4.332;2023-08-12T11:22:06;29.80;97.70
39665;DHT22;26679;50.872;4.332;2023-08-12T11:24:32;29.70;98.20
39665;DHT22;26679;50.872;4.332;2023-08-12T11:26:59;29.40;97.90
39665;DHT22;26679;50.872;4.332;2023-08-12T11:29:25;29.90;98.50
39665;DHT22;26679;50.872;4.332;2023-08-12T11:31:51;30.20;96.90
39665;DHT22;26679;50.872;4.332;2023-08-12T11:34:16;29.40;97.30
39665;DHT22;26679;50.872;4.332;2023-08-12T11:36:42;28.20;97.60
39665;DHT22;26679;50.872;4.332;2023-08-12T11:39:08;27.90;97.90
39665;DHT22;26679;50.872;4.332;2023-08-12T11:41:34;28.30;98.00
39665;DHT22;26679;50.872;4.332;2023-08-12T11:43:59;28.80;97.80
39665;DHT22;26679;50.872;4.332;2023-08-12T11:46:25;29.30;96.50
39665;DHT22;26679;50.872;4.332;2023-08-12T11:48:50;29.10;96.80
39665;DHT22;26679;50.872;4.332;2023-08-12T11:51:16;29.30;97.20
39665;DHT22;26679;50.872;4.332;2023-08-12T11:53:42;30.20;96.80
39665;DHT22;26679;50.872;4.332;2023-08-12T11:56:07;31.40;95.80
39665;DHT22;26679;50.872;4.332;2023-08-12T11:58:36;31.90;94.40
39665;DHT22;26679;50.872;4.332;2023-08-12T12:01:02;32.30;94.30
39665;DHT22;26679;50.872;4.332;2023-08-12T12:03:27;33.10;93.20
39665;DHT22;26679;50.872;4.332;2023-08-12T12:05:55;32.20;93.30
39665;DHT22;26679;50.872;4.332;2023-08-12T12:08:21;31.90;93.50
39665;DHT22;26679;50.872;4.332;2023-08-12T12:10:46;31.50;93.10
39665;DHT22;26679;50.872;4.332;2023-08-12T12:13:12;30.10;94.20
39665;DHT22;26679;50.872;4.332;2023-08-12T12:15:43;30.30;94.20
39665;DHT22;26679;50.872;4.332;2023-08-12T12:18:12;30.50;93.10
39665;DHT22;26679;50.872;4.332;2023-08-12T12:20:56;30.70;93.60
39665;DHT22;26679;50.872;4.332;2023-08-12T12:23:26;30.80;93.40
39665;DHT22;26679;50.872;4.332;2023-08-12T12:25:56;31.30;93.60
39665;DHT22;26679;50.872;4.332;2023-08-12T12:28:22;31.30;92.80
39665;DHT22;26679;50.872;4.332;2023-08-12T12:30:48;31.40;92.80
39665;DHT22;26679;50.872;4.332;2023-08-12T12:33:13;31.80;92.50
39665;DHT22;26679;50.872;4.332;2023-08-12T12:35:39;31.20;92.30
39665;DHT22;26679;50.872;4.332;2023-08-12T12:38:04;31.50;92.90
39665;DHT22;26679;50.872;4.332;2023-08-12T12:40:30;32.30;92.30
39665;DHT22;26679;50.872;4.332;2023-08-12T12:42:55;31.70;92.00
39665;DHT22;26679;50.872;4.332;2023-08-12T12:45:21;31.50;92.40
39665;DHT22;26679;50.872;4.332;2023-08-12T12:47:46;31.80;92.60
39665;DHT22;26679;50.872;4.332;2023-08-12T12:50:11;32.40;91.60
39665;DHT22;26679;50.872;4.332;2023-08-12T12:52:37;32.10;91.60
39665;DHT22;26679;50.872;4.332;2023-08-12T12:55:03;32.10;91.50
39665;DHT22;26679;50.872;4.332;2023-08-12T12:57:29;30.60;92.30
39665;DHT22;26679;50.872;4.332;2023-08-12T12:59:55;29.80;92.80
39665;DHT22;26679;50.872;4.332;2023-08-12T13:02:20;28.90;93.90
39665;DHT22;26679;50.872;4.332;2023-08-12T13:04:46;29.50;94.00
39665;DHT22;26679;50.872;4.332;2023-08-12T13:07:12;29.80;93.70
39665;DHT22;26679;50.872;4.332;2023-08-12T13:09:37;30.80;92.70
39665;DHT22;26679;50.872;4.332;2023-08-12T13:12:03;31.20;92.20
39665;DHT22;26679;50.872;4.332;2023-08-12T13:14:28;31.20;91.60
39665;DHT22;26679;50.872;4.332;2023-08-12T13:16:55;31.50;91.40
39665;DHT22;26679;50.872;4.332;2023-08-12T13:19:21;30.50;91.70
39665;DHT22;26679;50.872;4.332;2023-08-12T13:21:46;29.40;92.60
39665;DHT22;26679;50.872;4.332;2023-08-12T13:24:12;29.60;92.70
39665;DHT22;26679;50.872;4.332;2023-08-12T13:26:37;30.10;92.80
39665;DHT22;26679;50.872;4.332;2023-08-12T13:29:03;30.80;92.20
39665;DHT22;26679;50.872;4.332;2023-08-12T13:31:29;31.20;92.10
39665;DHT22;26679;50.872;4.332;2023-08-12T13:33:54;31.80;91.20
39665;DHT22;26679;50.872;4.332;2023-08-12T13:36:20;32.30;91.00
39665;DHT22;26679;50.872;4.332;2023-08-12T13:38:45;31.70;91.60
39665;DHT22;26679;50.872;4.332;2023-08-12T13:41:11;31.40;91.50
39665;DHT22;26679;50.872;4.332;2023-08-12T13:43:36;30.60;91.70
39665;DHT22;26679;50.872;4.332;2023-08-12T13:46:02;30.20;92.30
39665;DHT22;26679;50.872;4.332;2023-08-12T13:48:27;30.70;91.70
39665;DHT22;26679;50.872;4.332;2023-08-12T13:50:53;30.20;91.70
39665;DHT22;26679;50.872;4.332;2023-08-12T13:53:19;29.20;92.30
39665;DHT22;26679;50.872;4.332;2023-08-12T13:55:44;28.70;92.50
39665;DHT22;26679;50.872;4.332;2023-08-12T13:58:10;28.60;92.80
39665;DHT22;26679;50.872;4.332;2023-08-12T14:00:36;28.40;93.30
39665;DHT22;26679;50.872;4.332;2023-08-12T14:03:02;28.00;93.80
39665;DHT22;26679;50.872;4.332;2023-08-12T14:05:27;27.60;94.20
39665;DHT22;26679;50.872;4.332;2023-08-12T14:07:53;27.30;94.60
39665;DHT22;26679;50.872;4.332;2023-08-12T14:10:18;27.50;94.90
39665;DHT22;26679;50.872;4.332;2023-08-12T14:12:44;28.80;93.60
39665;DHT22;26679;50.872;4.332;2023-08-12T14:15:10;29.90;92.40
39665;DHT22;26679;50.872;4.332;2023-08-12T14:17:36;30.40;91.60
39665;DHT22;26679;50.872;4.332;2023-08-12T14:20:01;30.70;91.80
39665;DHT22;26679;50.872;4.332;2023-08-12T14:22:27;31.00;91.80
39665;DHT22;26679;50.872;4.332;2023-08-12T14:24:53;31.80;91.30
39665;DHT22;26679;50.872;4.332;2023-08-12T14:27:18;32.00;90.80
39665;DHT22;26679;50.872;4.332;2023-08-12T14:29:44;31.00;90.90
39665;DHT22;26679;50.872;4.332;2023-08-12T14:32:10;29.20;92.00
39665;DHT22;26679;50.872;4.332;2023-08-12T14:34:35;28.50;92.90
39665;DHT22;26679;50.872;4.332;2023-08-12T14:37:02;28.90;93.00
39665;DHT22;26679;50.872;4.332;2023-08-12T14:39:28;28.70;93.00
39665;DHT22;26679;50.872;4.332;2023-08-12T14:41:53;28.90;93.80
39665;DHT22;26679;50.872;4.332;2023-08-12T14:44:19;29.20;93.00
39665;DHT22;26679;50.872;4.332;2023-08-12T14:46:44;29.40;93.20
39665;DHT22;26679;50.872;4.332;2023-08-12T14:49:10;29.80;92.50
39665;DHT22;26679;50.872;4.332;2023-08-12T14:51:35;29.50;92.30
39665;DHT22;26679;50.872;4.332;2023-08-12T14:54:01;29.90;92.40
39665;DHT22;26679;50.872;4.332;2023-08-12T14:56:27;30.30;92.00
39665;DHT22;26679;50.872;4.332;2023-08-12T14:58:52;29.40;91.70
39665;DHT22;26679;50.872;4.332;2023-08-12T15:01:18;28.40;92.40
39665;DHT22;26679;50.872;4.332;2023-08-12T15:03:43;27.60;93.30
39665;DHT22;26679;50.872;4.332;2023-08-12T15:06:09;27.20;93.70
39665;DHT22;26679;50.872;4.332;2023-08-12T15:08:34;27.70;93.60
39665;DHT22;26679;50.872;4.332;2023-08-12T15:11:00;28.70;93.50
39665;DHT22;26679;50.872;4.332;2023-08-12T15:13:27;29.90;92.30
39665;DHT22;26679;50.872;4.332;2023-08-12T15:15:53;30.70;91.60
39665;DHT22;26679;50.872;4.332;2023-08-12T15:18:18;31.30;90.60
39665;DHT22;26679;50.872;4.332;2023-08-12T15:20:44;31.20;90.40
39665;DHT22;26679;50.872;4.332;2023-08-12T15:23:10;30.50;90.80
39665;DHT22;26679;50.872;4.332;2023-08-12T15:25:35;30.10;91.30
39665;DHT22;26679;50.872;4.332;2023-08-12T15:28:01;30.90;90.70
39665;DHT22;26679;50.872;4.332;2023-08-12T15:30:28;30.80;90.60
39665;DHT22;26679;50.872;4.332;2023-08-12T15:32:54;31.00;90.00
39665;DHT22;26679;50.872;4.332;2023-08-12T15:35:19;31.00;89.20
39665;DHT22;26679;50.872;4.332;2023-08-12T15:37:45;30.30;89.70